sensor_id;sensor_type;location;lat;lon;timestamp;temperature;humidity
67249;SHT31;63247;54.300;18.592;2024-02-23T00:01:26;7.51;99.99
67249;SHT31;63247;54.300;18.592;2024-02-23T00:03:51;7.55;99.99
67249;SHT31;63247;54.300;18.592;2024-02-23T00:06:17;7.55;99.99
67249;SHT31;63247;54.300;18.592;2024-02-23T00:08:43;7.60;99.99
67249;SHT31;63247;54.300;18.592;2024-02-23T00:11:08;7.54;99.99
67249;SHT31;63247;54.300;18.592;2024-02-23T00:13:34;7.61;99.99
67249;SHT31;63247;54.300;18.592;2024-02-23T00:16:00;7.61;99.99
67249;SHT31;63247;54.300;18.592;2024-02-23T00:18:25;7.65;99.99
67249;SHT31;63247;54.300;18.592;2024-02-23T00:20:50;7.61;99.99
67249;SHT31;63247;54.300;18.592;2024-02-23T00:23:16;7.65;99.99
67249;SHT31;63247;54.300;18.592;2024-02-23T00:25:41;7.64;99.99
67249;SHT31;63247;54.300;18.592;2024-02-23T00:28:07;7.70;99.99
67249;SHT31;63247;54.300;18.592;2024-02-23T00:30:33;7.74;99.99
67249;SHT31;63247;54.300;18.592;2024-02-23T00:32:58;7.68;99.99
67249;SHT31;63247;54.300;18.592;2024-02-23T00:35:24;7.72;99.99
67249;SHT31;63247;54.300;18.592;2024-02-23T00:37:49;7.72;99.99
67249;SHT31;63247;54.300;18.592;2024-02-23T00:40:15;7.67;99.99
67249;SHT31;63247;54.300;18.592;2024-02-23T00:42:41;7.83;99.99
67249;SHT31;63247;54.300;18.592;2024-02-23T00:45:07;7.71;99.99
67249;SHT31;63247;54.300;18.592;2024-02-23T00:47:32;7.78;99.99
67249;SHT31;63247;54.300;18.592;2024-02-23T00:49:58;7.77;99.99
67249;SHT31;63247;54.300;18.592;2024-02-23T00:52:23;7.74;99.99
67249;SHT31;63247;54.300;18.592;2024-02-23T00:54:49;7.74;99.99
67249;SHT31;63247;54.300;18.592;2024-02-23T00:57:14;7.71;99.99
67249;SHT31;63247;54.300;18.592;2024-02-23T00:59:41;7.77;99.99
67249;SHT31;63247;54.300;18.592;2024-02-23T01:02:06;7.71;99.99
67249;SHT31;63247;54.300;18.592;2024-02-23T01:04:32;7.70;99.99
67249;SHT31;63247;54.300;18.592;2024-02-23T01:06:58;7.74;99.99
67249;SHT31;63247;54.300;18.592;2024-02-23T01:09:23;7.77;99.99
67249;SHT31;63247;54.300;18.592;2024-02-23T01:11:49;7.79;99.99
67249;SHT31;63247;54.300;18.592;2024-02-23T01:14:15;7.75;99.99
67249;SHT31;63247;54.300;18.592;2024-02-23T01:16:40;7.78;99.99
67249;SHT31;63247;54.300;18.592;2024-02-23T01:19:06;7.78;99.99
67249;SHT31;63247;54.300;18.592;2024-02-23T01:21:31;7.86;99.99
67249;SHT31;63247;54.300;18.592;2024-02-23T01:23:57;7.79;99.99
67249;SHT31;63247;54.300;18.592;2024-02-23T01:26:23;7.86;99.99
67249;SHT31;63247;54.300;18.592;2024-02-23T01:28:48;7.78;99.99
67249;SHT31;63247;54.300;18.592;2024-02-23T01:31:14;7.81;99.99
67249;SHT31;63247;54.300;18.592;2024-02-23T01:33:39;7.79;99.99
67249;SHT31;63247;54.300;18.592;2024-02-23T01:36:05;7.71;99.99
67249;SHT31;63247;54.300;18.592;2024-02-23T01:38:31;7.68;99.99
67249;SHT31;63247;54.300;18.592;2024-02-23T01:40:58;7.68;99.99
67249;SHT31;63247;54.300;18.592;2024-02-23T01:43:24;7.55;99.99
67249;SHT31;63247;54.300;18.592;2024-02-23T01:45:49;7.54;99.99
67249;SHT31;63247;54.300;18.592;2024-02-23T01:48:15;7.55;99.99
67249;SHT31;63247;54.300;18.592;2024-02-23T01:50:42;7.52;99.99
67249;SHT31;63247;54.300;18.592;2024-02-23T01:53:08;7.48;99.99
67249;SHT31;63247;54.300;18.592;2024-02-23T01:55:35;7.50;99.99
67249;SHT31;63247;54.300;18.592;2024-02-23T01:58:00;7.50;99.99
67249;SHT31;63247;54.300;18.592;2024-02-23T02:00:26;7.52;99.99
67249;SHT31;63247;54.300;18.592;2024-02-23T02:02:52;7.51;99.99
67249;SHT31;63247;54.300;18.592;2024-02-23T02:05:18;7.52;99.99
67249;SHT31;63247;54.300;18.592;2024-02-23T02:07:45;7.55;99.99
67249;SHT31;63247;54.300;18.592;2024-02-23T02:10:12;7.60;99.99
67249;SHT31;63247;54.300;18.592;2024-02-23T02:12:38;7.65;99.99
67249;SHT31;63247;54.300;18.592;2024-02-23T02:15:04;7.67;99.99
67249;SHT31;63247;54.300;18.592;2024-02-23T02:17:30;7.68;99.99
67249;SHT31;63247;54.300;18.592;2024-02-23T02:19:58;7.72;99.99
67249;SHT31;63247;54.300;18.592;2024-02-23T02:22:24;7.70;99.99
67249;SHT31;63247;54.300;18.592;2024-02-23T02:24:49;7.67;99.99
67249;SHT31;63247;54.300;18.592;2024-02-23T02:27:15;7.64;99.99
67249;SHT31;63247;54.300;18.592;2024-02-23T02:29:40;7.65;99.99
67249;SHT31;63247;54.300;18.592;2024-02-23T02:32:06;7.67;99.99
67249;SHT31;63247;54.300;18.592;2024-02-23T02:34:32;7.65;99.99
67249;SHT31;63247;54.300;18.592;2024-02-23T02:36:57;7.68;99.99
67249;SHT31;63247;54.300;18.592;2024-02-23T02:39:23;7.60;99.99
67249;SHT31;63247;54.300;18.592;2024-02-23T02:41:48;7.54;99.99
67249;SHT31;63247;54.300;18.592;2024-02-23T02:44:14;7.52;99.99
67249;SHT31;63247;54.300;18.592;2024-02-23T02:46:40;7.58;99.99
67249;SHT31;63247;54.300;18.592;2024-02-23T02:49:06;7.57;99.99
67249;SHT31;63247;54.300;18.592;2024-02-23T02:51:31;7.54;99.99
67249;SHT31;63247;54.300;18.592;2024-02-23T02:53:57;7.57;99.99
67249;SHT31;63247;54.300;18.592;2024-02-23T02:56:22;7.54;99.99
67249;SHT31;63247;54.300;18.592;2024-02-23T02:58:48;7.57;99.99
67249;SHT31;63247;54.300;18.592;2024-02-23T03:01:13;7.54;99.99
67249;SHT31;63247;54.300;18.592;2024-02-23T03:03:38;7.57;99.99
67249;SHT31;63247;54.300;18.592;2024-02-23T03:06:04;7.55;99.99
67249;SHT31;63247;54.300;18.592;2024-02-23T03:08:31;7.58;99.99
67249;SHT31;63247;54.300;18.592;2024-02-23T03:10:56;7.58;99.99
67249;SHT31;63247;54.300;18.592;2024-02-23T03:13:22;7.58;99.99
67249;SHT31;63247;54.300;18.592;2024-02-23T03:15:48;7.58;99.99
67249;SHT31;63247;54.300;18.592;2024-02-23T03:18:13;7.58;99.99
67249;SHT31;63247;54.300;18.592;2024-02-23T03:20:41;7.58;99.99
67249;SHT31;63247;54.300;18.592;2024-02-23T03:23:07;7.62;99.99
67249;SHT31;63247;54.300;18.592;2024-02-23T03:25:32;7.61;99.99
67249;SHT31;63247;54.300;18.592;2024-02-23T03:27:57;7.58;99.99
67249;SHT31;63247;54.300;18.592;2024-02-23T03:30:23;7.64;99.99
67249;SHT31;63247;54.300;18.592;2024-02-23T03:32:48;7.68;99.99
67249;SHT31;63247;54.300;18.592;2024-02-23T03:35:14;7.70;99.99
67249;SHT31;63247;54.300;18.592;2024-02-23T03:37:39;7.70;99.99
67249;SHT31;63247;54.300;18.592;2024-02-23T03:40:05;7.74;99.99
67249;SHT31;63247;54.300;18.592;2024-02-23T03:42:31;7.74;99.99
67249;SHT31;63247;54.300;18.592;2024-02-23T03:44:57;7.72;99.99
67249;SHT31;63247;54.300;18.592;2024-02-23T03:47:22;7.74;99.99
67249;SHT31;63247;54.300;18.592;2024-02-23T03:49:47;7.77;99.99
67249;SHT31;63247;54.300;18.592;2024-02-23T03:52:13;7.78;99.99
67249;SHT31;63247;54.300;18.592;2024-02-23T03:54:38;7.72;99.99
67249;SHT31;63247;54.300;18.592;2024-02-23T03:57:04;7.71;99.99
67249;SHT31;63247;54.300;18.592;2024-02-23T03:59:29;7.74;99.99
67249;SHT31;63247;54.300;18.592;2024-02-23T04:01:55;7.77;99.99
67249;SHT31;63247;54.300;18.592;2024-02-23T04:04:21;7.77;99.99
67249;SHT31;63247;54.300;18.592;2024-02-23T04:06:47;7.71;99.99
67249;SHT31;63247;54.300;18.592;2024-02-23T04:09:12;7.75;99.99
67249;SHT31;63247;54.300;18.592;2024-02-23T04:11:37;7.74;99.99
67249;SHT31;63247;54.300;18.592;2024-02-23T04:14:03;7.79;99.99
67249;SHT31;63247;54.300;18.592;2024-02-23T04:16:30;7.82;99.99
67249;SHT31;63247;54.300;18.592;2024-02-23T04:18:56;7.83;99.99
67249;SHT31;63247;54.300;18.592;2024-02-23T04:21:22;7.86;99.99
67249;SHT31;63247;54.300;18.592;2024-02-23T04:23:47;7.88;99.99
67249;SHT31;63247;54.300;18.592;2024-02-23T04:26:13;7.89;99.99
67249;SHT31;63247;54.300;18.592;2024-02-23T04:28:40;7.91;99.99
67249;SHT31;63247;54.300;18.592;2024-02-23T04:31:05;7.89;99.99
67249;SHT31;63247;54.300;18.592;2024-02-23T04:33:31;7.91;99.99
67249;SHT31;63247;54.300;18.592;2024-02-23T04:35:56;7.92;99.99
67249;SHT31;63247;54.300;18.592;2024-02-23T04:38:22;7.89;99.99
67249;SHT31;63247;54.300;18.592;2024-02-23T04:40:47;7.92;99.99
67249;SHT31;63247;54.300;18.592;2024-02-23T04:43:13;7.96;99.99
67249;SHT31;63247;54.300;18.592;2024-02-23T04:45:38;8.03;99.99
67249;SHT31;63247;54.300;18.592;2024-02-23T04:48:04;7.95;99.99
67249;SHT31;63247;54.300;18.592;2024-02-23T04:50:29;7.98;99.99
67249;SHT31;63247;54.300;18.592;2024-02-23T04:52:55;8.00;99.99
67249;SHT31;63247;54.300;18.592;2024-02-23T04:55:20;7.96;99.99
67249;SHT31;63247;54.300;18.592;2024-02-23T04:57:46;8.00;99.99
67249;SHT31;63247;54.300;18.592;2024-02-23T05:00:11;8.06;99.99
67249;SHT31;63247;54.300;18.592;2024-02-23T05:02:37;8.13;99.99
67249;SHT31;63247;54.300;18.592;2024-02-23T05:05:03;8.13;99.99
67249;SHT31;63247;54.300;18.592;2024-02-23T05:07:32;8.19;99.99
67249;SHT31;63247;54.300;18.592;2024-02-23T05:09:58;8.19;99.99
67249;SHT31;63247;54.300;18.592;2024-02-23T05:12:24;8.25;99.99
67249;SHT31;63247;54.300;18.592;2024-02-23T05:14:49;8.29;99.99
67249;SHT31;63247;54.300;18.592;2024-02-23T05:17:14;8.30;99.99
67249;SHT31;63247;54.300;18.592;2024-02-23T05:19:40;8.40;99.99
67249;SHT31;63247;54.300;18.592;2024-02-23T05:22:05;8.40;99.99
67249;SHT31;63247;54.300;18.592;2024-02-23T05:24:31;8.40;99.99
67249;SHT31;63247;54.300;18.592;2024-02-23T05:26:56;8.47;99.99
67249;SHT31;63247;54.300;18.592;2024-02-23T05:29:26;8.44;99.99
67249;SHT31;63247;54.300;18.592;2024-02-23T05:31:52;8.48;99.99
67249;SHT31;63247;54.300;18.592;2024-02-23T05:34:18;8.50;99.99
67249;SHT31;63247;54.300;18.592;2024-02-23T05:36:44;8.48;99.99
67249;SHT31;63247;54.300;18.592;2024-02-23T05:39:11;8.53;99.99
67249;SHT31;63247;54.300;18.592;2024-02-23T05:41:38;8.51;99.99
67249;SHT31;63247;54.300;18.592;2024-02-23T05:44:04;8.56;99.99
67249;SHT31;63247;54.300;18.592;2024-02-23T05:46:35;8.58;99.99
67249;SHT31;63247;54.300;18.592;2024-02-23T05:49:01;8.58;99.99
67249;SHT31;63247;54.300;18.592;2024-02-23T05:51:28;8.58;99.99
67249;SHT31;63247;54.300;18.592;2024-02-23T05:53:54;8.63;99.99
67249;SHT31;63247;54.300;18.592;2024-02-23T05:56:20;8.65;99.99
67249;SHT31;63247;54.300;18.592;2024-02-23T05:58:45;8.68;99.99
67249;SHT31;63247;54.300;18.592;2024-02-23T06:01:11;8.63;99.99
67249;SHT31;63247;54.300;18.592;2024-02-23T06:03:36;8.65;99.99
67249;SHT31;63247;54.300;18.592;2024-02-23T06:06:02;8.67;99.99
67249;SHT31;63247;54.300;18.592;2024-02-23T06:08:27;8.71;99.99
67249;SHT31;63247;54.300;18.592;2024-02-23T06:10:52;8.74;99.99
67249;SHT31;63247;54.300;18.592;2024-02-23T06:13:18;8.79;99.99
67249;SHT31;63247;54.300;18.592;2024-02-23T06:15:43;8.79;99.99
67249;SHT31;63247;54.300;18.592;2024-02-23T06:18:09;8.82;99.99
67249;SHT31;63247;54.300;18.592;2024-02-23T06:20:34;8.84;99.99
67249;SHT31;63247;54.300;18.592;2024-02-23T06:22:59;8.85;99.99
67249;SHT31;63247;54.300;18.592;2024-02-23T06:25:25;8.85;99.99
67249;SHT31;63247;54.300;18.592;2024-02-23T06:27:50;8.84;99.99
67249;SHT31;63247;54.300;18.592;2024-02-23T06:30:16;8.87;99.99
67249;SHT31;63247;54.300;18.592;2024-02-23T06:32:41;8.89;99.99
67249;SHT31;63247;54.300;18.592;2024-02-23T06:35:08;8.92;99.99
67249;SHT31;63247;54.300;18.592;2024-02-23T06:37:34;8.93;99.99
67249;SHT31;63247;54.300;18.592;2024-02-23T06:39:59;8.98;99.99
67249;SHT31;63247;54.300;18.592;2024-02-23T06:42:25;8.93;99.99
67249;SHT31;63247;54.300;18.592;2024-02-23T06:44:50;8.95;99.99
67249;SHT31;63247;54.300;18.592;2024-02-23T06:47:16;8.95;99.99
67249;SHT31;63247;54.300;18.592;2024-02-23T06:49:42;8.98;99.99
67249;SHT31;63247;54.300;18.592;2024-02-23T06:52:10;8.98;99.99
67249;SHT31;63247;54.300;18.592;2024-02-23T06:54:36;8.95;99.99
67249;SHT31;63247;54.300;18.592;2024-02-23T06:57:02;8.93;99.99
67249;SHT31;63247;54.300;18.592;2024-02-23T06:59:28;9.05;99.99
67249;SHT31;63247;54.300;18.592;2024-02-23T07:01:54;9.09;99.99
67249;SHT31;63247;54.300;18.592;2024-02-23T07:04:20;9.11;99.99
67249;SHT31;63247;54.300;18.592;2024-02-23T07:06:46;9.19;99.99
67249;SHT31;63247;54.300;18.592;2024-02-23T07:09:11;9.22;99.99
67249;SHT31;63247;54.300;18.592;2024-02-23T07:11:38;9.30;99.99
67249;SHT31;63247;54.300;18.592;2024-02-23T07:14:04;9.37;99.99
67249;SHT31;63247;54.300;18.592;2024-02-23T07:16:32;9.33;99.99
67249;SHT31;63247;54.300;18.592;2024-02-23T07:18:57;9.47;99.99
67249;SHT31;63247;54.300;18.592;2024-02-23T07:21:23;9.51;99.99
67249;SHT31;63247;54.300;18.592;2024-02-23T07:23:49;9.54;99.99
67249;SHT31;63247;54.300;18.592;2024-02-23T07:26:14;9.60;99.99
67249;SHT31;63247;54.300;18.592;2024-02-23T07:28:39;9.60;99.99
67249;SHT31;63247;54.300;18.592;2024-02-23T07:31:05;9.63;99.99
67249;SHT31;63247;54.300;18.592;2024-02-23T07:33:30;9.64;99.99
67249;SHT31;63247;54.300;18.592;2024-02-23T07:35:56;9.69;99.99
67249;SHT31;63247;54.300;18.592;2024-02-23T07:38:21;9.67;99.99
67249;SHT31;63247;54.300;18.592;2024-02-23T07:40:47;9.70;99.99
67249;SHT31;63247;54.300;18.592;2024-02-23T07:43:12;9.74;99.99
67249;SHT31;63247;54.300;18.592;2024-02-23T07:45:38;9.69;99.99
67249;SHT31;63247;54.300;18.592;2024-02-23T07:48:04;9.64;99.99
67249;SHT31;63247;54.300;18.592;2024-02-23T07:50:30;9.71;99.99
67249;SHT31;63247;54.300;18.592;2024-02-23T07:52:55;9.74;99.99
67249;SHT31;63247;54.300;18.592;2024-02-23T07:55:20;9.77;99.99
67249;SHT31;63247;54.300;18.592;2024-02-23T07:57:47;9.81;99.99
67249;SHT31;63247;54.300;18.592;2024-02-23T08:00:13;9.81;99.99
67249;SHT31;63247;54.300;18.592;2024-02-23T08:02:39;9.81;99.99
67249;SHT31;63247;54.300;18.592;2024-02-23T08:05:05;9.87;99.99
67249;SHT31;63247;54.300;18.592;2024-02-23T08:07:31;9.95;99.99
67249;SHT31;63247;54.300;18.592;2024-02-23T08:09:57;9.94;99.99
67249;SHT31;63247;54.300;18.592;2024-02-23T08:12:22;9.93;99.99
67249;SHT31;63247;54.300;18.592;2024-02-23T08:14:48;9.95;99.99
67249;SHT31;63247;54.300;18.592;2024-02-23T08:17:15;9.98;99.99
67249;SHT31;63247;54.300;18.592;2024-02-23T08:19:41;10.01;99.99
67249;SHT31;63247;54.300;18.592;2024-02-23T08:22:06;10.05;99.99
67249;SHT31;63247;54.300;18.592;2024-02-23T08:24:32;9.97;99.99
67249;SHT31;63247;54.300;18.592;2024-02-23T08:26:57;10.02;99.99
67249;SHT31;63247;54.300;18.592;2024-02-23T08:29:22;10.06;99.80
67249;SHT31;63247;54.300;18.592;2024-02-23T08:31:48;10.06;99.29
67249;SHT31;63247;54.300;18.592;2024-02-23T08:34:14;10.22;99.07
67249;SHT31;63247;54.300;18.592;2024-02-23T08:36:40;10.09;98.48
67249;SHT31;63247;54.300;18.592;2024-02-23T08:39:05;10.05;98.34
67249;SHT31;63247;54.300;18.592;2024-02-23T08:41:31;10.08;96.50
67249;SHT31;63247;54.300;18.592;2024-02-23T08:43:56;10.08;96.14
67249;SHT31;63247;54.300;18.592;2024-02-23T08:46:21;10.11;96.16
67249;SHT31;63247;54.300;18.592;2024-02-23T08:48:47;9.98;95.97
67249;SHT31;63247;54.300;18.592;2024-02-23T08:51:13;10.11;95.68
67249;SHT31;63247;54.300;18.592;2024-02-23T08:53:38;10.09;95.63
67249;SHT31;63247;54.300;18.592;2024-02-23T08:56:06;10.05;94.29
67249;SHT31;63247;54.300;18.592;2024-02-23T08:58:32;9.93;92.66
67249;SHT31;63247;54.300;18.592;2024-02-23T09:00:57;9.94;92.99
67249;SHT31;63247;54.300;18.592;2024-02-23T09:03:23;9.83;92.75
67249;SHT31;63247;54.300;18.592;2024-02-23T09:05:49;9.84;92.10
67249;SHT31;63247;54.300;18.592;2024-02-23T09:08:15;9.78;91.94
67249;SHT31;63247;54.300;18.592;2024-02-23T09:10:41;9.77;92.10
67249;SHT31;63247;54.300;18.592;2024-02-23T09:13:06;9.81;92.05
67249;SHT31;63247;54.300;18.592;2024-02-23T09:15:32;9.74;92.33
67249;SHT31;63247;54.300;18.592;2024-02-23T09:17:57;9.73;92.60
67249;SHT31;63247;54.300;18.592;2024-02-23T09:20:23;9.71;92.37
67249;SHT31;63247;54.300;18.592;2024-02-23T09:22:48;9.74;91.63
67249;SHT31;63247;54.300;18.592;2024-02-23T09:25:14;9.75;91.35
67249;SHT31;63247;54.300;18.592;2024-02-23T09:27:40;9.87;91.46
67249;SHT31;63247;54.300;18.592;2024-02-23T09:30:13;9.97;90.80
67249;SHT31;63247;54.300;18.592;2024-02-23T09:32:39;9.95;90.65
67249;SHT31;63247;54.300;18.592;2024-02-23T09:35:04;10.01;90.46
67249;SHT31;63247;54.300;18.592;2024-02-23T09:37:31;10.25;89.12
67249;SHT31;63247;54.300;18.592;2024-02-23T09:39:56;10.32;88.93
67249;SHT31;63247;54.300;18.592;2024-02-23T09:42:23;10.31;87.81
67249;SHT31;63247;54.300;18.592;2024-02-23T09:45:10;10.35;86.95
67249;SHT31;63247;54.300;18.592;2024-02-23T09:47:36;10.32;86.87
67249;SHT31;63247;54.300;18.592;2024-02-23T09:50:04;10.12;86.90
67249;SHT31;63247;54.300;18.592;2024-02-23T09:52:29;10.33;86.91
67249;SHT31;63247;54.300;18.592;2024-02-23T09:54:55;10.48;85.41
67249;SHT31;63247;54.300;18.592;2024-02-23T09:57:20;10.35;84.88
67249;SHT31;63247;54.300;18.592;2024-02-23T09:59:48;10.48;85.02
67249;SHT31;63247;54.300;18.592;2024-02-23T10:02:15;10.57;85.05
67249;SHT31;63247;54.300;18.592;2024-02-23T10:04:42;10.50;85.07
67249;SHT31;63247;54.300;18.592;2024-02-23T10:07:14;10.53;84.05
67249;SHT31;63247;54.300;18.592;2024-02-23T10:09:41;10.76;83.54
67249;SHT31;63247;54.300;18.592;2024-02-23T10:12:07;10.67;84.17
67249;SHT31;63247;54.300;18.592;2024-02-23T10:14:32;10.63;84.29
67249;SHT31;63247;54.300;18.592;2024-02-23T10:16:58;10.59;84.59
67249;SHT31;63247;54.300;18.592;2024-02-23T10:19:25;10.53;83.89
67249;SHT31;63247;54.300;18.592;2024-02-23T10:21:54;10.53;83.44
67249;SHT31;63247;54.300;18.592;2024-02-23T10:24:19;10.73;83.77
67249;SHT31;63247;54.300;18.592;2024-02-23T10:26:45;10.50;84.11
67249;SHT31;63247;54.300;18.592;2024-02-23T10:29:10;10.55;84.65
67249;SHT31;63247;54.300;18.592;2024-02-23T10:31:36;10.55;84.08
67249;SHT31;63247;54.300;18.592;2024-02-23T10:34:07;10.56;84.19
67249;SHT31;63247;54.300;18.592;2024-02-23T10:36:43;10.70;84.24
67249;SHT31;63247;54.300;18.592;2024-02-23T10:39:10;10.76;83.80
67249;SHT31;63247;54.300;18.592;2024-02-23T10:41:36;10.74;83.97
67249;SHT31;63247;54.300;18.592;2024-02-23T10:44:05;10.87;83.52
67249;SHT31;63247;54.300;18.592;2024-02-23T10:46:32;11.10;82.93
67249;SHT31;63247;54.300;18.592;2024-02-23T10:48:58;11.45;82.40
67249;SHT31;63247;54.300;18.592;2024-02-23T10:51:24;11.55;81.86
67249;SHT31;63247;54.300;18.592;2024-02-23T10:53:52;11.65;81.32
67249;SHT31;63247;54.300;18.592;2024-02-23T10:56:18;11.83;80.56
67249;SHT31;63247;54.300;18.592;2024-02-23T10:58:45;12.07;80.20
67249;SHT31;63247;54.300;18.592;2024-02-23T11:01:11;12.21;79.96
67249;SHT31;63247;54.300;18.592;2024-02-23T11:03:38;12.08;79.39
67249;SHT31;63247;54.300;18.592;2024-02-23T11:06:07;11.70;80.23
67249;SHT31;63247;54.300;18.592;2024-02-23T11:08:33;11.70;80.39
67249;SHT31;63247;54.300;18.592;2024-02-23T11:11:10;11.63;80.79
67249;SHT31;63247;54.300;18.592;2024-02-23T11:13:37;11.38;80.67
67249;SHT31;63247;54.300;18.592;2024-02-23T11:16:07;11.38;81.26
67249;SHT31;63247;54.300;18.592;2024-02-23T11:18:36;11.45;81.72
67249;SHT31;63247;54.300;18.592;2024-02-23T11:21:04;11.11;81.66
67249;SHT31;63247;54.300;18.592;2024-02-23T11:23:48;11.06;82.36
67249;SHT31;63247;54.300;18.592;2024-02-23T11:26:15;11.10;82.90
67249;SHT31;63247;54.300;18.592;2024-02-23T11:28:50;10.96;82.85
67249;SHT31;63247;54.300;18.592;2024-02-23T11:31:23;10.91;83.82
67249;SHT31;63247;54.300;18.592;2024-02-23T11:33:53;11.10;82.93
67249;SHT31;63247;54.300;18.592;2024-02-23T11:36:29;11.24;82.84
67249;SHT31;63247;54.300;18.592;2024-02-23T11:38:57;11.27;82.59
67249;SHT31;63247;54.300;18.592;2024-02-23T11:41:23;11.39;82.44
67249;SHT31;63247;54.300;18.592;2024-02-23T11:43:50;11.31;82.33
67249;SHT31;63247;54.300;18.592;2024-02-23T11:46:16;11.56;81.91
67249;SHT31;63247;54.300;18.592;2024-02-23T11:48:42;11.51;82.51
67249;SHT31;63247;54.300;18.592;2024-02-23T11:51:09;11.40;82.05
67249;SHT31;63247;54.300;18.592;2024-02-23T11:53:36;11.49;82.90
67249;SHT31;63247;54.300;18.592;2024-02-23T11:56:01;11.52;81.94
67249;SHT31;63247;54.300;18.592;2024-02-23T11:58:27;11.66;82.48
67249;SHT31;63247;54.300;18.592;2024-02-23T12:00:52;11.52;82.04
67249;SHT31;63247;54.300;18.592;2024-02-23T12:03:18;11.58;82.58
67249;SHT31;63247;54.300;18.592;2024-02-23T12:05:43;11.46;82.02
67249;SHT31;63247;54.300;18.592;2024-02-23T12:08:09;11.63;82.64
67249;SHT31;63247;54.300;18.592;2024-02-23T12:10:34;11.97;82.01
67249;SHT31;63247;54.300;18.592;2024-02-23T12:13:01;12.55;80.23
67249;SHT31;63247;54.300;18.592;2024-02-23T12:15:28;13.41;79.22
67249;SHT31;63247;54.300;18.592;2024-02-23T12:17:54;13.44;79.07
67249;SHT31;63247;54.300;18.592;2024-02-23T12:20:22;12.99;78.40
67249;SHT31;63247;54.300;18.592;2024-02-23T12:22:48;12.72;78.10
67249;SHT31;63247;54.300;18.592;2024-02-23T12:25:13;12.41;79.61
67249;SHT31;63247;54.300;18.592;2024-02-23T12:27:40;11.93;79.41
67249;SHT31;63247;54.300;18.592;2024-02-23T12:30:12;11.61;79.94
67249;SHT31;63247;54.300;18.592;2024-02-23T12:32:38;11.80;80.32
67249;SHT31;63247;54.300;18.592;2024-02-23T12:35:04;11.77;80.34
67249;SHT31;63247;54.300;18.592;2024-02-23T12:37:34;11.90;80.74
67249;SHT31;63247;54.300;18.592;2024-02-23T12:40:00;12.18;80.67
67249;SHT31;63247;54.300;18.592;2024-02-23T12:42:26;11.79;79.81
67249;SHT31;63247;54.300;18.592;2024-02-23T12:44:51;11.83;79.91
67249;SHT31;63247;54.300;18.592;2024-02-23T12:47:16;11.65;80.40
67249;SHT31;63247;54.300;18.592;2024-02-23T12:49:43;11.82;79.86
67249;SHT31;63247;54.300;18.592;2024-02-23T12:52:08;11.77;80.37
67249;SHT31;63247;54.300;18.592;2024-02-23T12:54:34;12.10;79.60
67249;SHT31;63247;54.300;18.592;2024-02-23T12:56:59;12.18;79.52
67249;SHT31;63247;54.300;18.592;2024-02-23T12:59:25;12.14;80.15
67249;SHT31;63247;54.300;18.592;2024-02-23T13:01:50;11.98;80.76
67249;SHT31;63247;54.300;18.592;2024-02-23T13:04:16;11.85;80.66
67249;SHT31;63247;54.300;18.592;2024-02-23T13:06:41;12.14;80.97
67249;SHT31;63247;54.300;18.592;2024-02-23T13:09:07;11.87;81.44
67249;SHT31;63247;54.300;18.592;2024-02-23T13:11:34;11.96;81.83
67249;SHT31;63247;54.300;18.592;2024-02-23T13:14:00;11.49;82.27
67249;SHT31;63247;54.300;18.592;2024-02-23T13:16:28;11.25;82.78
67249;SHT31;63247;54.300;18.592;2024-02-23T13:18:53;11.19;82.67
67249;SHT31;63247;54.300;18.592;2024-02-23T13:21:18;10.97;83.08
67249;SHT31;63247;54.300;18.592;2024-02-23T13:23:44;10.89;83.53
67249;SHT31;63247;54.300;18.592;2024-02-23T13:26:09;10.73;83.68
67249;SHT31;63247;54.300;18.592;2024-02-23T13:28:36;10.64;83.35
67249;SHT31;63247;54.300;18.592;2024-02-23T13:31:02;10.55;84.38
67249;SHT31;63247;54.300;18.592;2024-02-23T13:33:28;10.42;84.15
67249;SHT31;63247;54.300;18.592;2024-02-23T13:35:53;10.41;84.22
67249;SHT31;63247;54.300;18.592;2024-02-23T13:38:20;10.35;84.91
67249;SHT31;63247;54.300;18.592;2024-02-23T13:40:45;10.29;85.42
67249;SHT31;63247;54.300;18.592;2024-02-23T13:43:11;10.32;85.87
67249;SHT31;63247;54.300;18.592;2024-02-23T13:45:48;10.25;84.99
67249;SHT31;63247;54.300;18.592;2024-02-23T13:48:15;10.18;85.21
67249;SHT31;63247;54.300;18.592;2024-02-23T13:50:41;10.21;85.34
67249;SHT31;63247;54.300;18.592;2024-02-23T13:53:07;10.23;84.75
67249;SHT31;63247;54.300;18.592;2024-02-23T13:55:32;10.25;84.48
67249;SHT31;63247;54.300;18.592;2024-02-23T13:57:58;10.28;84.73
67249;SHT31;63247;54.300;18.592;2024-02-23T14:00:23;10.19;83.89
67249;SHT31;63247;54.300;18.592;2024-02-23T14:02:48;10.19;84.46
67249;SHT31;63247;54.300;18.592;2024-02-23T14:05:14;10.13;84.24
67249;SHT31;63247;54.300;18.592;2024-02-23T14:07:43;10.11;84.32
67249;SHT31;63247;54.300;18.592;2024-02-23T14:10:09;10.08;83.70
67249;SHT31;63247;54.300;18.592;2024-02-23T14:12:35;10.06;84.42
67249;SHT31;63247;54.300;18.592;2024-02-23T14:15:00;9.93;84.58
67249;SHT31;63247;54.300;18.592;2024-02-23T14:17:26;9.85;84.90
67249;SHT31;63247;54.300;18.592;2024-02-23T14:19:51;9.75;85.21
67249;SHT31;63247;54.300;18.592;2024-02-23T14:22:17;9.69;86.29
67249;SHT31;63247;54.300;18.592;2024-02-23T14:24:43;9.60;85.93
67249;SHT31;63247;54.300;18.592;2024-02-23T14:27:08;9.58;86.43
67249;SHT31;63247;54.300;18.592;2024-02-23T14:29:34;9.51;86.34
67249;SHT31;63247;54.300;18.592;2024-02-23T14:32:00;9.50;85.89
67249;SHT31;63247;54.300;18.592;2024-02-23T14:34:26;9.53;85.62
67249;SHT31;63247;54.300;18.592;2024-02-23T14:36:52;9.60;85.36
67249;SHT31;63247;54.300;18.592;2024-02-23T14:39:18;9.63;85.00
67249;SHT31;63247;54.300;18.592;2024-02-23T14:41:43;9.65;84.56
67249;SHT31;63247;54.300;18.592;2024-02-23T14:44:09;9.64;84.52
67249;SHT31;63247;54.300;18.592;2024-02-23T14:46:34;9.61;84.57
67249;SHT31;63247;54.300;18.592;2024-02-23T14:49:00;9.71;84.66
67249;SHT31;63247;54.300;18.592;2024-02-23T14:51:25;9.57;83.76
67249;SHT31;63247;54.300;18.592;2024-02-23T14:53:50;9.67;84.27
67249;SHT31;63247;54.300;18.592;2024-02-23T14:56:16;9.58;84.99
67249;SHT31;63247;54.300;18.592;2024-02-23T14:58:41;9.57;85.84
67249;SHT31;63247;54.300;18.592;2024-02-23T15:01:07;9.46;84.66
67249;SHT31;63247;54.300;18.592;2024-02-23T15:03:33;9.44;85.02
67249;SHT31;63247;54.300;18.592;2024-02-23T15:05:58;9.40;85.61
67249;SHT31;63247;54.300;18.592;2024-02-23T15:08:24;9.36;85.23
67249;SHT31;63247;54.300;18.592;2024-02-23T15:10:49;9.30;84.70
67249;SHT31;63247;54.300;18.592;2024-02-23T15:13:17;9.30;85.11
67249;SHT31;63247;54.300;18.592;2024-02-23T15:15:42;9.26;85.14
67249;SHT31;63247;54.300;18.592;2024-02-23T15:18:08;9.16;84.83